sensor_id;sensor_type;location;lat;lon;timestamp;P1;durP1;ratioP1;P2;durP2;ratioP2
41077;SDS011;26823;42.662;23.352;2022-10-16T00:01:45;12.95;;;8.38;;
41077;SDS011;26823;42.662;23.352;2022-10-16T00:04:11;14.43;;;7.03;;
41077;SDS011;26823;42.662;23.352;2022-10-16T00:06:43;15.00;;;8.23;;
41077;SDS011;26823;42.662;23.352;2022-10-16T00:09:09;13.55;;;7.88;;
41077;SDS011;26823;42.662;23.352;2022-10-16T00:11:35;13.57;;;8.52;;
41077;SDS011;26823;42.662;23.352;2022-10-16T00:14:05;12.95;;;7.97;;
41077;SDS011;26823;42.662;23.352;2022-10-16T00:16:33;11.85;;;8.02;;
41077;SDS011;26823;42.662;23.352;2022-10-16T00:18:59;13.35;;;8.18;;
41077;SDS011;26823;42.662;23.352;2022-10-16T00:21:25;17.20;;;8.13;;
41077;SDS011;26823;42.662;23.352;2022-10-16T00:23:54;12.60;;;8.77;;
41077;SDS011;26823;42.662;23.352;2022-10-16T00:26:22;14.93;;;7.80;;
41077;SDS011;26823;42.662;23.352;2022-10-16T00:28:48;12.02;;;8.40;;
41077;SDS011;26823;42.662;23.352;2022-10-16T00:31:15;13.63;;;8.35;;
41077;SDS011;26823;42.662;23.352;2022-10-16T00:33:42;11.82;;;7.68;;
41077;SDS011;26823;42.662;23.352;2022-10-16T00:36:08;11.25;;;7.40;;
41077;SDS011;26823;42.662;23.352;2022-10-16T00:38:36;15.32;;;8.02;;
41077;SDS011;26823;42.662;23.352;2022-10-16T00:41:03;16.15;;;7.05;;
41077;SDS011;26823;42.662;23.352;2022-10-16T00:43:45;10.02;;;6.68;;
41077;SDS011;26823;42.662;23.352;2022-10-16T00:48:44;9.68;;;6.40;;
41077;SDS011;26823;42.662;23.352;2022-10-16T00:51:37;9.48;;;6.70;;
41077;SDS011;26823;42.662;23.352;2022-10-16T00:54:06;10.93;;;6.70;;
41077;SDS011;26823;42.662;23.352;2022-10-16T00:56:35;10.57;;;7.45;;
41077;SDS011;26823;42.662;23.352;2022-10-16T00:59:01;12.85;;;7.07;;
41077;SDS011;26823;42.662;23.352;2022-10-16T01:01:31;11.80;;;7.22;;
41077;SDS011;26823;42.662;23.352;2022-10-16T01:03:56;13.15;;;7.75;;
41077;SDS011;26823;42.662;23.352;2022-10-16T01:12:14;11.45;;;7.53;;
41077;SDS011;26823;42.662;23.352;2022-10-16T01:17:32;10.95;;;7.10;;
41077;SDS011;26823;42.662;23.352;2022-10-16T01:25:52;11.93;;;7.15;;
41077;SDS011;26823;42.662;23.352;2022-10-16T01:28:15;9.75;;;6.80;;
41077;SDS011;26823;42.662;23.352;2022-10-16T01:30:46;11.32;;;7.57;;
41077;SDS011;26823;42.662;23.352;2022-10-16T01:33:20;11.07;;;7.53;;
41077;SDS011;26823;42.662;23.352;2022-10-16T01:36:03;14.70;;;7.25;;
41077;SDS011;26823;42.662;23.352;2022-10-16T01:38:36;9.25;;;5.88;;
41077;SDS011;26823;42.662;23.352;2022-10-16T01:41:13;15.20;;;6.95;;
41077;SDS011;26823;42.662;23.352;2022-10-16T01:43:43;12.32;;;7.45;;
41077;SDS011;26823;42.662;23.352;2022-10-16T01:46:20;11.43;;;6.82;;
41077;SDS011;26823;42.662;23.352;2022-10-16T01:48:48;11.87;;;6.93;;
41077;SDS011;26823;42.662;23.352;2022-10-16T01:51:17;13.23;;;7.15;;
41077;SDS011;26823;42.662;23.352;2022-10-16T01:53:46;10.98;;;7.00;;
41077;SDS011;26823;42.662;23.352;2022-10-16T01:56:15;13.40;;;6.93;;
41077;SDS011;26823;42.662;23.352;2022-10-16T01:58:47;10.43;;;6.68;;
41077;SDS011;26823;42.662;23.352;2022-10-16T02:01:19;14.68;;;7.15;;
41077;SDS011;26823;42.662;23.352;2022-10-16T02:03:48;9.88;;;6.75;;
41077;SDS011;26823;42.662;23.352;2022-10-16T02:06:18;11.32;;;7.05;;
41077;SDS011;26823;42.662;23.352;2022-10-16T02:08:43;13.13;;;7.47;;
41077;SDS011;26823;42.662;23.352;2022-10-16T02:11:09;13.75;;;6.85;;
41077;SDS011;26823;42.662;23.352;2022-10-16T02:13:37;11.13;;;6.63;;
41077;SDS011;26823;42.662;23.352;2022-10-16T02:16:07;12.65;;;6.82;;
41077;SDS011;26823;42.662;23.352;2022-10-16T02:18:34;11.52;;;7.05;;
41077;SDS011;26823;42.662;23.352;2022-10-16T02:21:01;13.77;;;7.90;;
41077;SDS011;26823;42.662;23.352;2022-10-16T02:23:43;10.85;;;7.85;;
41077;SDS011;26823;42.662;23.352;2022-10-16T02:26:34;17.33;;;7.65;;
41077;SDS011;26823;42.662;23.352;2022-10-16T02:29:07;12.02;;;7.63;;
41077;SDS011;26823;42.662;23.352;2022-10-16T02:31:38;11.90;;;7.13;;
41077;SDS011;26823;42.662;23.352;2022-10-16T02:34:09;10.40;;;7.32;;
41077;SDS011;26823;42.662;23.352;2022-10-16T02:36:37;11.13;;;6.93;;
41077;SDS011;26823;42.662;23.352;2022-10-16T02:39:04;12.75;;;7.47;;
41077;SDS011;26823;42.662;23.352;2022-10-16T02:41:30;8.98;;;6.60;;
41077;SDS011;26823;42.662;23.352;2022-10-16T02:43:57;12.68;;;7.28;;
41077;SDS011;26823;42.662;23.352;2022-10-16T02:46:22;10.35;;;6.55;;
41077;SDS011;26823;42.662;23.352;2022-10-16T02:48:47;10.93;;;6.95;;
41077;SDS011;26823;42.662;23.352;2022-10-16T02:51:13;13.93;;;7.65;;
41077;SDS011;26823;42.662;23.352;2022-10-16T02:53:38;12.48;;;6.60;;
41077;SDS011;26823;42.662;23.352;2022-10-16T02:56:04;12.27;;;6.68;;
41077;SDS011;26823;42.662;23.352;2022-10-16T02:58:29;9.02;;;6.05;;
41077;SDS011;26823;42.662;23.352;2022-10-16T03:00:55;11.13;;;6.50;;
41077;SDS011;26823;42.662;23.352;2022-10-16T03:03:20;10.88;;;7.07;;
41077;SDS011;26823;42.662;23.352;2022-10-16T03:05:46;9.77;;;6.07;;
41077;SDS011;26823;42.662;23.352;2022-10-16T03:08:12;11.98;;;6.63;;
41077;SDS011;26823;42.662;23.352;2022-10-16T03:10:38;10.18;;;6.35;;
41077;SDS011;26823;42.662;23.352;2022-10-16T03:13:03;16.17;;;7.25;;
41077;SDS011;26823;42.662;23.352;2022-10-16T03:15:29;11.00;;;7.53;;
41077;SDS011;26823;42.662;23.352;2022-10-16T03:17:57;13.32;;;7.72;;
41077;SDS011;26823;42.662;23.352;2022-10-16T03:20:23;14.15;;;7.13;;
41077;SDS011;26823;42.662;23.352;2022-10-16T03:22:49;11.82;;;7.00;;
41077;SDS011;26823;42.662;23.352;2022-10-16T03:25:14;11.05;;;6.72;;
41077;SDS011;26823;42.662;23.352;2022-10-16T03:27:39;11.82;;;6.82;;
41077;SDS011;26823;42.662;23.352;2022-10-16T03:30:05;11.07;;;7.35;;
41077;SDS011;26823;42.662;23.352;2022-10-16T03:32:31;11.13;;;6.85;;
41077;SDS011;26823;42.662;23.352;2022-10-16T03:34:56;10.82;;;6.57;;
41077;SDS011;26823;42.662;23.352;2022-10-16T03:37:22;14.65;;;7.82;;
41077;SDS011;26823;42.662;23.352;2022-10-16T03:39:47;11.13;;;6.68;;
41077;SDS011;26823;42.662;23.352;2022-10-16T03:42:13;11.80;;;6.95;;
41077;SDS011;26823;42.662;23.352;2022-10-16T03:44:38;13.30;;;6.82;;
41077;SDS011;26823;42.662;23.352;2022-10-16T03:47:03;9.93;;;6.43;;
41077;SDS011;26823;42.662;23.352;2022-10-16T03:49:29;10.05;;;7.22;;
41077;SDS011;26823;42.662;23.352;2022-10-16T03:51:54;10.48;;;6.72;;
41077;SDS011;26823;42.662;23.352;2022-10-16T03:54:20;10.82;;;7.38;;
41077;SDS011;26823;42.662;23.352;2022-10-16T03:56:47;9.05;;;6.22;;
41077;SDS011;26823;42.662;23.352;2022-10-16T03:59:12;11.70;;;7.22;;
41077;SDS011;26823;42.662;23.352;2022-10-16T04:01:38;10.90;;;7.03;;
41077;SDS011;26823;42.662;23.352;2022-10-16T04:04:03;11.65;;;7.13;;
41077;SDS011;26823;42.662;23.352;2022-10-16T04:06:28;10.32;;;6.90;;
41077;SDS011;26823;42.662;23.352;2022-10-16T04:08:54;12.32;;;6.90;;
41077;SDS011;26823;42.662;23.352;2022-10-16T04:11:19;11.18;;;6.28;;
41077;SDS011;26823;42.662;23.352;2022-10-16T04:13:45;8.65;;;5.97;;
41077;SDS011;26823;42.662;23.352;2022-10-16T04:16:10;12.95;;;6.55;;
41077;SDS011;26823;42.662;23.352;2022-10-16T04:18:36;12.90;;;7.13;;
41077;SDS011;26823;42.662;23.352;2022-10-16T04:21:02;10.55;;;6.57;;
41077;SDS011;26823;42.662;23.352;2022-10-16T04:23:28;11.48;;;7.05;;
41077;SDS011;26823;42.662;23.352;2022-10-16T04:25:54;10.05;;;6.68;;
41077;SDS011;26823;42.662;23.352;2022-10-16T04:28:19;10.88;;;7.40;;
41077;SDS011;26823;42.662;23.352;2022-10-16T04:30:47;10.57;;;6.38;;
41077;SDS011;26823;42.662;23.352;2022-10-16T04:33:13;9.82;;;7.05;;
41077;SDS011;26823;42.662;23.352;2022-10-16T04:35:38;12.35;;;6.80;;
41077;SDS011;26823;42.662;23.352;2022-10-16T04:38:04;11.85;;;6.85;;
41077;SDS011;26823;42.662;23.352;2022-10-16T04:40:29;12.70;;;7.00;;
41077;SDS011;26823;42.662;23.352;2022-10-16T04:42:58;9.15;;;6.47;;
41077;SDS011;26823;42.662;23.352;2022-10-16T04:45:24;12.25;;;6.35;;
41077;SDS011;26823;42.662;23.352;2022-10-16T04:47:50;11.02;;;6.88;;
41077;SDS011;26823;42.662;23.352;2022-10-16T04:50:15;14.50;;;7.10;;
41077;SDS011;26823;42.662;23.352;2022-10-16T04:52:40;13.60;;;6.75;;
41077;SDS011;26823;42.662;23.352;2022-10-16T04:55:06;8.32;;;6.13;;
41077;SDS011;26823;42.662;23.352;2022-10-16T04:57:32;13.30;;;7.38;;
41077;SDS011;26823;42.662;23.352;2022-10-16T05:00:05;9.48;;;6.30;;
41077;SDS011;26823;42.662;23.352;2022-10-16T05:02:32;12.82;;;7.85;;
41077;SDS011;26823;42.662;23.352;2022-10-16T05:04:58;10.60;;;6.47;;
41077;SDS011;26823;42.662;23.352;2022-10-16T05:07:23;10.13;;;6.32;;
41077;SDS011;26823;42.662;23.352;2022-10-16T05:09:49;11.68;;;7.43;;
41077;SDS011;26823;42.662;23.352;2022-10-16T05:12:14;10.82;;;6.32;;
41077;SDS011;26823;42.662;23.352;2022-10-16T05:14:39;11.95;;;6.90;;
41077;SDS011;26823;42.662;23.352;2022-10-16T05:17:05;17.48;;;8.88;;
41077;SDS011;26823;42.662;23.352;2022-10-16T05:19:31;17.25;;;8.30;;
41077;SDS011;26823;42.662;23.352;2022-10-16T05:21:59;12.02;;;6.70;;
41077;SDS011;26823;42.662;23.352;2022-10-16T05:24:25;13.85;;;7.82;;
41077;SDS011;26823;42.662;23.352;2022-10-16T05:26:50;14.35;;;7.65;;
41077;SDS011;26823;42.662;23.352;2022-10-16T05:29:16;11.27;;;7.45;;
41077;SDS011;26823;42.662;23.352;2022-10-16T05:31:41;10.88;;;7.18;;
41077;SDS011;26823;42.662;23.352;2022-10-16T05:34:07;11.18;;;6.57;;
41077;SDS011;26823;42.662;23.352;2022-10-16T05:36:32;12.00;;;7.35;;
41077;SDS011;26823;42.662;23.352;2022-10-16T05:38:58;10.05;;;6.63;;
41077;SDS011;26823;42.662;23.352;2022-10-16T05:41:23;17.90;;;7.63;;
41077;SDS011;26823;42.662;23.352;2022-10-16T05:43:50;15.07;;;7.43;;
41077;SDS011;26823;42.662;23.352;2022-10-16T05:46:17;11.00;;;7.07;;
41077;SDS011;26823;42.662;23.352;2022-10-16T05:48:42;10.43;;;6.85;;
41077;SDS011;26823;42.662;23.352;2022-10-16T05:51:12;10.90;;;7.70;;
41077;SDS011;26823;42.662;23.352;2022-10-16T05:53:38;18.92;;;7.95;;
41077;SDS011;26823;42.662;23.352;2022-10-16T05:56:05;17.30;;;7.93;;
41077;SDS011;26823;42.662;23.352;2022-10-16T05:58:35;14.25;;;7.65;;
41077;SDS011;26823;42.662;23.352;2022-10-16T06:01:04;11.63;;;7.47;;
41077;SDS011;26823;42.662;23.352;2022-10-16T06:03:31;10.85;;;6.97;;
41077;SDS011;26823;42.662;23.352;2022-10-16T06:05:58;15.65;;;7.93;;
41077;SDS011;26823;42.662;23.352;2022-10-16T06:08:23;11.77;;;7.63;;
41077;SDS011;26823;42.662;23.352;2022-10-16T06:10:59;10.18;;;6.72;;
41077;SDS011;26823;42.662;23.352;2022-10-16T06:13:29;9.05;;;6.20;;
41077;SDS011;26823;42.662;23.352;2022-10-16T06:15:56;15.07;;;6.68;;
41077;SDS011;26823;42.662;23.352;2022-10-16T06:18:22;10.00;;;6.50;;
41077;SDS011;26823;42.662;23.352;2022-10-16T06:20:47;8.93;;;6.60;;
41077;SDS011;26823;42.662;23.352;2022-10-16T06:23:16;10.95;;;7.15;;
41077;SDS011;26823;42.662;23.352;2022-10-16T06:25:48;9.73;;;6.97;;
41077;SDS011;26823;42.662;23.352;2022-10-16T06:28:17;9.75;;;6.35;;
41077;SDS011;26823;42.662;23.352;2022-10-16T06:30:45;10.13;;;5.70;;
41077;SDS011;26823;42.662;23.352;2022-10-16T06:33:11;7.97;;;5.38;;
41077;SDS011;26823;42.662;23.352;2022-10-16T06:35:45;9.00;;;6.15;;
41077;SDS011;26823;42.662;23.352;2022-10-16T06:38:11;7.43;;;5.13;;
41077;SDS011;26823;42.662;23.352;2022-10-16T06:40:36;16.23;;;5.30;;
41077;SDS011;26823;42.662;23.352;2022-10-16T06:43:02;8.50;;;6.03;;
41077;SDS011;26823;42.662;23.352;2022-10-16T06:45:27;6.75;;;4.85;;
41077;SDS011;26823;42.662;23.352;2022-10-16T06:47:53;8.73;;;5.47;;
41077;SDS011;26823;42.662;23.352;2022-10-16T06:50:18;6.88;;;4.88;;
41077;SDS011;26823;42.662;23.352;2022-10-16T06:52:44;5.80;;;5.10;;
41077;SDS011;26823;42.662;23.352;2022-10-16T06:55:09;7.55;;;5.22;;
41077;SDS011;26823;42.662;23.352;2022-10-16T06:57:34;10.57;;;6.60;;
41077;SDS011;26823;42.662;23.352;2022-10-16T07:00:00;9.98;;;6.57;;
41077;SDS011;26823;42.662;23.352;2022-10-16T07:02:26;10.32;;;6.38;;
41077;SDS011;26823;42.662;23.352;2022-10-16T07:04:51;10.43;;;6.03;;
41077;SDS011;26823;42.662;23.352;2022-10-16T07:07:17;13.60;;;7.20;;
41077;SDS011;26823;42.662;23.352;2022-10-16T07:09:42;9.90;;;6.63;;
41077;SDS011;26823;42.662;23.352;2022-10-16T07:12:07;8.48;;;6.57;;
41077;SDS011;26823;42.662;23.352;2022-10-16T07:14:33;10.65;;;6.65;;
41077;SDS011;26823;42.662;23.352;2022-10-16T07:16:58;7.82;;;6.15;;
41077;SDS011;26823;42.662;23.352;2022-10-16T07:19:24;8.65;;;5.93;;
41077;SDS011;26823;42.662;23.352;2022-10-16T07:21:50;11.48;;;6.20;;
41077;SDS011;26823;42.662;23.352;2022-10-16T07:24:17;10.15;;;6.40;;
41077;SDS011;26823;42.662;23.352;2022-10-16T07:26:43;7.93;;;6.13;;
41077;SDS011;26823;42.662;23.352;2022-10-16T07:29:12;8.40;;;5.97;;
41077;SDS011;26823;42.662;23.352;2022-10-16T07:31:42;9.50;;;6.32;;
41077;SDS011;26823;42.662;23.352;2022-10-16T07:34:08;10.75;;;6.47;;
41077;SDS011;26823;42.662;23.352;2022-10-16T07:36:35;9.02;;;5.88;;
41077;SDS011;26823;42.662;23.352;2022-10-16T07:39:01;6.40;;;5.65;;
41077;SDS011;26823;42.662;23.352;2022-10-16T07:41:26;9.63;;;5.93;;
41077;SDS011;26823;42.662;23.352;2022-10-16T07:43:53;12.82;;;5.93;;
41077;SDS011;26823;42.662;23.352;2022-10-16T07:46:20;6.70;;;5.22;;
41077;SDS011;26823;42.662;23.352;2022-10-16T07:48:46;8.07;;;5.45;;
41077;SDS011;26823;42.662;23.352;2022-10-16T07:51:16;9.48;;;5.70;;
41077;SDS011;26823;42.662;23.352;2022-10-16T07:53:43;8.38;;;4.82;;
41077;SDS011;26823;42.662;23.352;2022-10-16T07:56:09;8.68;;;5.22;;
41077;SDS011;26823;42.662;23.352;2022-10-16T07:58:35;6.13;;;4.63;;
41077;SDS011;26823;42.662;23.352;2022-10-16T08:01:05;7.65;;;4.97;;
41077;SDS011;26823;42.662;23.352;2022-10-16T08:03:33;8.48;;;4.65;;
41077;SDS011;26823;42.662;23.352;2022-10-16T08:05:59;6.30;;;4.60;;
41077;SDS011;26823;42.662;23.352;2022-10-16T08:08:25;6.53;;;5.03;;
41077;SDS011;26823;42.662;23.352;2022-10-16T08:10:51;9.43;;;5.13;;
41077;SDS011;26823;42.662;23.352;2022-10-16T08:13:17;8.38;;;4.75;;
41077;SDS011;26823;42.662;23.352;2022-10-16T08:15:43;6.13;;;5.47;;
41077;SDS011;26823;42.662;23.352;2022-10-16T08:18:09;7.68;;;4.35;;
41077;SDS011;26823;42.662;23.352;2022-10-16T08:20:36;8.45;;;4.57;;
41077;SDS011;26823;42.662;23.352;2022-10-16T08:23:02;6.28;;;5.38;;
41077;SDS011;26823;42.662;23.352;2022-10-16T08:25:28;8.43;;;5.10;;
41077;SDS011;26823;42.662;23.352;2022-10-16T08:27:54;7.35;;;4.50;;
41077;SDS011;26823;42.662;23.352;2022-10-16T08:30:20;6.93;;;4.93;;
41077;SDS011;26823;42.662;23.352;2022-10-16T08:32:47;6.35;;;3.83;;
41077;SDS011;26823;42.662;23.352;2022-10-16T08:35:13;5.65;;;4.20;;
41077;SDS011;26823;42.662;23.352;2022-10-16T08:37:41;8.55;;;4.13;;
41077;SDS011;26823;42.662;23.352;2022-10-16T08:40:13;4.80;;;4.30;;
41077;SDS011;26823;42.662;23.352;2022-10-16T08:51:11;4.53;;;4.07;;
41077;SDS011;26823;42.662;23.352;2022-10-16T08:53:52;8.85;;;3.70;;
41077;SDS011;26823;42.662;23.352;2022-10-16T08:56:20;4.53;;;3.70;;
41077;SDS011;26823;42.662;23.352;2022-10-16T08:58:46;3.90;;;3.42;;
41077;SDS011;26823;42.662;23.352;2022-10-16T09:01:14;4.40;;;3.05;;
41077;SDS011;26823;42.662;23.352;2022-10-16T09:12:20;5.10;;;2.78;;
41077;SDS011;26823;42.662;23.352;2022-10-16T09:15:07;3.63;;;2.83;;
41077;SDS011;26823;42.662;23.352;2022-10-16T09:18:01;5.35;;;2.72;;
41077;SDS011;26823;42.662;23.352;2022-10-16T09:25:30;3.78;;;3.05;;
41077;SDS011;26823;42.662;23.352;2022-10-16T09:27:57;6.13;;;2.85;;
41077;SDS011;26823;42.662;23.352;2022-10-16T09:30:22;5.93;;;3.13;;
41077;SDS011;26823;42.662;23.352;2022-10-16T09:32:53;5.53;;;2.92;;
41077;SDS011;26823;42.662;23.352;2022-10-16T09:35:20;3.97;;;2.80;;
41077;SDS011;26823;42.662;23.352;2022-10-16T09:37:51;2.53;;;2.10;;
41077;SDS011;26823;42.662;23.352;2022-10-16T09:40:24;4.68;;;2.85;;
41077;SDS011;26823;42.662;23.352;2022-10-16T09:43:02;4.78;;;2.50;;
41077;SDS011;26823;42.662;23.352;2022-10-16T09:45:35;3.17;;;2.35;;
41077;SDS011;26823;42.662;23.352;2022-10-16T09:48:09;3.22;;;2.03;;
41077;SDS011;26823;42.662;23.352;2022-10-16T09:50:36;4.72;;;2.63;;
41077;SDS011;26823;42.662;23.352;2022-10-16T09:53:10;2.97;;;2.63;;
41077;SDS011;26823;42.662;23.352;2022-10-16T09:55:47;3.90;;;2.08;;
41077;SDS011;26823;42.662;23.352;2022-10-16T09:58:16;4.05;;;2.67;;
41077;SDS011;26823;42.662;23.352;2022-10-16T10:00:42;3.63;;;2.20;;
41077;SDS011;26823;42.662;23.352;2022-10-16T10:03:23;3.58;;;2.30;;
41077;SDS011;26823;42.662;23.352;2022-10-16T10:05:58;2.72;;;2.28;;
41077;SDS011;26823;42.662;23.352;2022-10-16T10:08:32;3.77;;;2.03;;
41077;SDS011;26823;42.662;23.352;2022-10-16T10:10:58;4.55;;;2.30;;
41077;SDS011;26823;42.662;23.352;2022-10-16T10:13:24;3.67;;;2.80;;
41077;SDS011;26823;42.662;23.352;2022-10-16T10:15:51;2.35;;;1.90;;
41077;SDS011;26823;42.662;23.352;2022-10-16T10:18:19;3.03;;;2.50;;
41077;SDS011;26823;42.662;23.352;2022-10-16T10:20:56;3.38;;;2.40;;
41077;SDS011;26823;42.662;23.352;2022-10-16T10:23:26;3.95;;;2.10;;
41077;SDS011;26823;42.662;23.352;2022-10-16T10:36:34;3.17;;;2.22;;
41077;SDS011;26823;42.662;23.352;2022-10-16T10:39:11;2.30;;;2.10;;
41077;SDS011;26823;42.662;23.352;2022-10-16T10:47:00;2.90;;;2.30;;
41077;SDS011;26823;42.662;23.352;2022-10-16T11:01:12;3.67;;;2.20;;
41077;SDS011;26823;42.662;23.352;2022-10-16T11:06:43;4.22;;;2.08;;
41077;SDS011;26823;42.662;23.352;2022-10-16T11:09:20;7.57;;;4.85;;
41077;SDS011;26823;42.662;23.352;2022-10-16T11:11:54;2.97;;;2.20;;
41077;SDS011;26823;42.662;23.352;2022-10-16T11:17:14;5.45;;;2.00;;
41077;SDS011;26823;42.662;23.352;2022-10-16T11:25:27;2.63;;;1.80;;
41077;SDS011;26823;42.662;23.352;2022-10-16T11:31:04;3.28;;;1.70;;
41077;SDS011;26823;42.662;23.352;2022-10-16T11:33:35;2.72;;;1.75;;
41077;SDS011;26823;42.662;23.352;2022-10-16T11:39:33;2.78;;;1.80;;
41077;SDS011;26823;42.662;23.352;2022-10-16T11:42:07;40.40;;;28.02;;
41077;SDS011;26823;42.662;23.352;2022-10-16T11:44:51;4.65;;;4.07;;
41077;SDS011;26823;42.662;23.352;2022-10-16T11:52:56;1.55;;;1.42;;
41077;SDS011;26823;42.662;23.352;2022-10-16T11:55:46;1.55;;;1.45;;
41077;SDS011;26823;42.662;23.352;2022-10-16T12:08:48;2.42;;;2.05;;
41077;SDS011;26823;42.662;23.352;2022-10-16T12:16:58;2.85;;;2.25;;
41077;SDS011;26823;42.662;23.352;2022-10-16T12:19:42;2.28;;;1.98;;
41077;SDS011;26823;42.662;23.352;2022-10-16T12:22:15;2.78;;;2.08;;
41077;SDS011;26823;42.662;23.352;2022-10-16T12:24:43;2.92;;;1.77;;
41077;SDS011;26823;42.662;23.352;2022-10-16T12:29:57;2.43;;;1.83;;
41077;SDS011;26823;42.662;23.352;2022-10-16T12:35:19;5.30;;;2.15;;
41077;SDS011;26823;42.662;23.352;2022-10-16T12:37:47;2.08;;;1.88;;
41077;SDS011;26823;42.662;23.352;2022-10-16T12:42:46;2.15;;;1.70;;
41077;SDS011;26823;42.662;23.352;2022-10-16T12:45:25;2.80;;;2.00;;
41077;SDS011;26823;42.662;23.352;2022-10-16T12:48:02;2.38;;;1.90;;
41077;SDS011;26823;42.662;23.352;2022-10-16T12:53:03;2.40;;;2.10;;
41077;SDS011;26823;42.662;23.352;2022-10-16T12:55:47;3.38;;;1.85;;
41077;SDS011;26823;42.662;23.352;2022-10-16T13:01:26;3.63;;;1.65;;
41077;SDS011;26823;42.662;23.352;2022-10-16T13:14:44;2.67;;;1.77;;
41077;SDS011;26823;42.662;23.352;2022-10-16T13:17:22;2.58;;;1.70;;
41077;SDS011;26823;42.662;23.352;2022-10-16T13:20:28;2.60;;;1.92;;
41077;SDS011;26823;42.662;23.352;2022-10-16T13:25:48;2.67;;;1.95;;
41077;SDS011;26823;42.662;23.352;2022-10-16T13:28:34;2.30;;;2.10;;
41077;SDS011;26823;42.662;23.352;2022-10-16T13:31:03;1.92;;;1.50;;
41077;SDS011;26823;42.662;23.352;2022-10-16T13:33:41;2.72;;;2.03;;
41077;SDS011;26823;42.662;23.352;2022-10-16T13:36:18;2.83;;;2.15;;
41077;SDS011;26823;42.662;23.352;2022-10-16T13:38:58;2.13;;;1.75;;
41077;SDS011;26823;42.662;23.352;2022-10-16T13:41:45;1.95;;;1.77;;
41077;SDS011;26823;42.662;23.352;2022-10-16T13:44:14;3.05;;;1.80;;
41077;SDS011;26823;42.662;23.352;2022-10-16T13:46:44;4.32;;;2.17;;
41077;SDS011;26823;42.662;23.352;2022-10-16T13:49:14;4.95;;;3.28;;
41077;SDS011;26823;42.662;23.352;2022-10-16T13:51:41;2.13;;;1.95;;
41077;SDS011;26823;42.662;23.352;2022-10-16T13:54:10;2.30;;;1.98;;
41077;SDS011;26823;42.662;23.352;2022-10-16T13:56:38;2.30;;;2.10;;
41077;SDS011;26823;42.662;23.352;2022-10-16T13:59:05;2.13;;;1.92;;
41077;SDS011;26823;42.662;23.352;2022-10-16T14:01:45;2.45;;;2.08;;
41077;SDS011;26823;42.662;23.352;2022-10-16T14:04:11;3.13;;;2.10;;
41077;SDS011;26823;42.662;23.352;2022-10-16T14:06:45;4.28;;;1.63;;
41077;SDS011;26823;42.662;23.352;2022-10-16T14:11:51;2.97;;;2.20;;
41077;SDS011;26823;42.662;23.352;2022-10-16T14:14:20;2.90;;;2.10;;
41077;SDS011;26823;42.662;23.352;2022-10-16T14:16:47;6.47;;;1.98;;
41077;SDS011;26823;42.662;23.352;2022-10-16T14:19:24;2.53;;;2.00;;
41077;SDS011;26823;42.662;23.352;2022-10-16T14:21:52;4.50;;;2.15;;
41077;SDS011;26823;42.662;23.352;2022-10-16T14:24:51;2.70;;;2.05;;
41077;SDS011;26823;42.662;23.352;2022-10-16T14:27:29;3.55;;;2.75;;
41077;SDS011;26823;42.662;23.352;2022-10-16T14:30:12;5.70;;;2.13;;
41077;SDS011;26823;42.662;23.352;2022-10-16T14:32:41;4.75;;;2.30;;
41077;SDS011;26823;42.662;23.352;2022-10-16T14:37:58;3.05;;;2.22;;
41077;SDS011;26823;42.662;23.352;2022-10-16T14:40:35;4.53;;;2.70;;
41077;SDS011;26823;42.662;23.352;2022-10-16T14:43:02;4.22;;;2.90;;
41077;SDS011;26823;42.662;23.352;2022-10-16T14:45:30;3.53;;;3.00;;
41077;SDS011;26823;42.662;23.352;2022-10-16T14:48:00;2.85;;;2.55;;
41077;SDS011;26823;42.662;23.352;2022-10-16T14:50:28;2.38;;;2.15;;
41077;SDS011;26823;42.662;23.352;2022-10-16T14:52:53;2.33;;;2.08;;
41077;SDS011;26823;42.662;23.352;2022-10-16T14:55:20;2.38;;;1.95;;
41077;SDS011;26823;42.662;23.352;2022-10-16T14:57:45;2.80;;;2.38;;
41077;SDS011;26823;42.662;23.352;2022-10-16T15:00:17;2.50;;;2.10;;
41077;SDS011;26823;42.662;23.352;2022-10-16T15:02:45;2.95;;;2.03;;
41077;SDS011;26823;42.662;23.352;2022-10-16T15:05:25;2.13;;;1.83;;
41077;SDS011;26823;42.662;23.352;2022-10-16T15:07:51;2.33;;;1.70;;
41077;SDS011;26823;42.662;23.352;2022-10-16T15:10:18;2.38;;;1.80;;
41077;SDS011;26823;42.662;23.352;2022-10-16T15:12:46;4.13;;;2.35;;
41077;SDS011;26823;42.662;23.352;2022-10-16T15:17:45;8.50;;;3.80;;
41077;SDS011;26823;42.662;23.352;2022-10-16T15:20:11;2.80;;;1.92;;
41077;SDS011;26823;42.662;23.352;2022-10-16T15:22:36;6.78;;;2.28;;
41077;SDS011;26823;42.662;23.352;2022-10-16T15:25:04;4.13;;;2.88;;
41077;SDS011;26823;42.662;23.352;2022-10-16T15:27:43;3.90;;;3.13;;
41077;SDS011;26823;42.662;23.352;2022-10-16T15:30:08;3.60;;;2.65;;
41077;SDS011;26823;42.662;23.352;2022-10-16T15:32:34;3.97;;;2.72;;
41077;SDS011;26823;42.662;23.352;2022-10-16T15:34:59;5.20;;;2.60;;
41077;SDS011;26823;42.662;23.352;2022-10-16T15:37:25;4.00;;;2.65;;
41077;SDS011;26823;42.662;23.352;2022-10-16T15:39:50;7.05;;;2.40;;
41077;SDS011;26823;42.662;23.352;2022-10-16T15:42:16;4.68;;;2.80;;
41077;SDS011;26823;42.662;23.352;2022-10-16T15:44:44;8.73;;;4.10;;
41077;SDS011;26823;42.662;23.352;2022-10-16T15:47:10;5.00;;;2.75;;
41077;SDS011;26823;42.662;23.352;2022-10-16T15:49:37;5.07;;;3.30;;
41077;SDS011;26823;42.662;23.352;2022-10-16T15:52:03;5.97;;;3.13;;
41077;SDS011;26823;42.662;23.352;2022-10-16T15:54:29;4.00;;;2.67;;
41077;SDS011;26823;42.662;23.352;2022-10-16T15:56:54;6.05;;;2.80;;
41077;SDS011;26823;42.662;23.352;2022-10-16T15:59:19;6.15;;;2.78;;
41077;SDS011;26823;42.662;23.352;2022-10-16T16:01:45;5.13;;;3.05;;
41077;SDS011;26823;42.662;23.352;2022-10-16T16:04:10;10.50;;;3.33;;
41077;SDS011;26823;42.662;23.352;2022-10-16T16:06:36;5.55;;;3.53;;
41077;SDS011;26823;42.662;23.352;2022-10-16T16:09:04;3.88;;;3.33;;
41077;SDS011;26823;42.662;23.352;2022-10-16T16:11:29;3.67;;;2.85;;
41077;SDS011;26823;42.662;23.352;2022-10-16T16:13:56;6.53;;;3.05;;
41077;SDS011;26823;42.662;23.352;2022-10-16T16:16:22;6.75;;;3.00;;
41077;SDS011;26823;42.662;23.352;2022-10-16T16:18:48;5.22;;;3.35;;
41077;SDS011;26823;42.662;23.352;2022-10-16T16:21:18;4.80;;;3.28;;
41077;SDS011;26823;42.662;23.352;2022-10-16T16:23:43;4.75;;;3.53;;
41077;SDS011;26823;42.662;23.352;2022-10-16T16:26:20;4.30;;;3.05;;
41077;SDS011;26823;42.662;23.352;2022-10-16T16:28:51;4.47;;;3.95;;
41077;SDS011;26823;42.662;23.352;2022-10-16T16:31:25;4.43;;;3.03;;
41077;SDS011;26823;42.662;23.352;2022-10-16T16:33:52;5.32;;;3.45;;
41077;SDS011;26823;42.662;23.352;2022-10-16T16:36:18;5.88;;;3.20;;
41077;SDS011;26823;42.662;23.352;2022-10-16T16:38:44;5.45;;;3.78;;
41077;SDS011;26823;42.662;23.352;2022-10-16T16:41:11;5.75;;;3.65;;
41077;SDS011;26823;42.662;23.352;2022-10-16T16:43:41;5.32;;;3.70;;
41077;SDS011;26823;42.662;23.352;2022-10-16T16:46:07;5.78;;;2.83;;
41077;SDS011;26823;42.662;23.352;2022-10-16T16:48:32;4.90;;;3.63;;
41077;SDS011;26823;42.662;23.352;2022-10-16T16:51:05;5.70;;;3.53;;
41077;SDS011;26823;42.662;23.352;2022-10-16T16:53:35;6.25;;;3.17;;
41077;SDS011;26823;42.662;23.352;2022-10-16T16:56:03;5.93;;;3.90;;
41077;SDS011;26823;42.662;23.352;2022-10-16T16:58:30;11.65;;;3.97;;
41077;SDS011;26823;42.662;23.352;2022-10-16T17:01:00;6.45;;;3.70;;